Licata

Licata – Cittanova 2-2, non basta Bonanno ai pianigiani

Il Cittanova torna da Licata con un pareggio. Al Liotta si è assistiti ad una bella sfida tra due formazioni che si sono affrontati a viso aperto, senza mai risparmiarsi. Il primo tempo vede le...

Cittanova, a Licata per l’assalto ai playoff

Il Cittanova di mister De Gaetano, quest'oggi è chiamato a tentare l'assalto ai playoff sul difficile campo del Licata. In questo match di recupero, valevole per la trentesima giornata del campionato di Serie D,...

Un ottimo San Luca non va oltre il pari casalingo contro il Licata

Termina zero a zero la sfida al “Corrado Alvaro” tra San Luca e Licata. Tanti rimpianti per la comitiva di Canonico che dopo un primo tempo conclusosi con una traversa colpita da Berman, di...

Recupero 26a giornata Serie D, San Luca-Licata 2-1: giallorossi al quarto posto

San Luca inarrestabile anche quest’oggi, vittorioso al Corrado Alvaro contro il Licata nella sfida di recupero valevole per la 26a giornata di campionato. I giallorossi superano anche la formazione siciliana, reduce dall’importante successo nel...

Serie D: i recuperi della domenica

Ecco il riepilogo di risultati, marcatori, classifiche e prossimo turno delle gare di oggi: Biancavilla-Dattilo: 2-0 Cittanovese-Castrovillari: 2-4 FC Messina-Licata: 3-0 Roccella-Rotonda: 1-2
DataCasaRisultatiTrasfertaOra
2022-05-22 16:00:0022/05/221 - 3 16:00:0016:00
2022-05-15 16:00:0015/05/223 - 1 16:00:0016:00
2022-05-08 15:00:0008/05/220 - 0 15:00:0015:00
2022-05-04 15:00:0004/05/220 - 1 15:00:0015:00
2022-04-24 15:00:0024/04/221 - 0 15:00:0015:00
2022-04-14 15:00:3114/04/220 - 4 15:00:3115:00
2022-04-10 15:00:2210/04/225 - 1 15:00:2215:00
2022-04-03 15:00:0003/04/223 - 3 15:00:0015:00
2022-03-30 14:30:0030/03/222 - 2 14:30:0014:30
2022-03-27 14:30:0027/03/223 - 0 14:30:0014:30
2022-03-13 14:30:0013/03/22- 14:30:0014:30
2022-03-06 14:30:0006/03/221 - 0 14:30:0014:30
2022-02-27 14:30:3927/02/221 - 0 14:30:3914:30
2022-02-20 14:30:0420/02/222 - 1 14:30:0414:30
2022-02-16 14:30:0016/02/220 - 1 14:30:0014:30
2022-02-13 14:30:4713/02/220 - 0 14:30:4714:30
2022-02-06 14:30:0006/02/221 - 3 14:30:0014:30
2022-02-02 14:30:0002/02/222 - 0 14:30:0014:30
2022-01-09 14:30:0009/01/221 - 1 14:30:0014:30
2021-12-22 14:30:0022/12/213 - 0 14:30:0014:30
2021-12-19 14:30:0019/12/212 - 4 14:30:0014:30
2021-12-12 14:30:0012/12/211 - 1 14:30:0014:30
2021-12-08 14:30:0008/12/213 - 1 14:30:0014:30
2021-12-05 14:30:0005/12/213 - 1 14:30:0014:30
2021-11-28 14:30:0028/11/211 - 1 14:30:0014:30
2021-11-21 14:30:0021/11/213 - 1 14:30:0014:30
2021-11-14 14:30:0014/11/211 - 4 14:30:0014:30
2021-11-07 14:30:0007/11/212 - 2 14:30:0014:30
2021-10-31 14:30:0031/10/211 - 1 14:30:0014:30
2021-10-24 14:30:0024/10/210 - 0 14:30:0014:30
2021-10-20 14:30:0020/10/211 - 0 14:30:0014:30
2021-10-17 14:30:0017/10/214 - 0 14:30:0014:30
2021-10-10 14:30:0010/10/212 - 1 14:30:0014:30
2021-10-06 14:30:0006/10/212 - 0 14:30:0014:30
2021-10-03 14:30:0003/10/211 - 1 14:30:0014:30
2021-09-26 14:30:0026/09/213 - 2 14:30:0014:30
2021-06-19 15:00:0019/06/211 - 2 15:00:0015:00
2021-06-16 15:00:0016/06/212 - 5 15:00:0015:00
2021-06-13 15:00:0013/06/211 - 1 15:00:0015:00
2021-05-23 15:00:0023/05/210 - 0 15:00:0015:00
2021-05-19 15:00:0019/05/210 - 1 15:00:0015:00
2021-05-16 15:00:0016/05/211 - 1 15:00:0015:00
2021-05-09 15:00:0009/05/212 - 2 15:00:0015:00
2021-04-18 15:00:0018/04/211 - 1 15:00:0015:00
2021-04-14 15:00:0014/04/211 - 3 15:00:0015:00
2021-04-11 15:00:0011/04/212 - 1 15:00:0015:00
2021-04-01 15:00:0001/04/211 - 0 15:00:0015:00
2021-03-28 15:00:0028/03/212 - 0 15:00:0015:00
2021-03-21 15:00:0021/03/212 - 2 15:00:0015:00
2021-03-07 15:00:0007/03/211 - 0 15:00:0015:00
2021-02-28 15:00:0028/02/210 - 1 15:00:0015:00
2021-02-24 15:00:0024/02/211 - 2 15:00:0015:00
2021-02-21 15:00:0021/02/213 - 0 15:00:0015:00
2021-02-14 15:00:0014/02/212 - 1 15:00:0015:00
2021-02-07 15:00:0007/02/210 - 1 15:00:0015:00
2021-02-03 15:00:0003/02/210 - 0 15:00:0015:00
2021-01-31 15:00:0031/01/211 - 2 15:00:0015:00
2021-01-24 15:00:0024/01/213 - 0 15:00:0015:00
2021-01-17 15:00:0017/01/210 - 0 15:00:0015:00
2021-01-10 15:00:0010/01/211 - 1 15:00:0015:00
2021-01-06 15:00:0006/01/211 - 1 15:00:0015:00
2020-12-23 15:00:0023/12/201 - 0 15:00:0015:00
2020-12-20 15:00:0020/12/201 - 0 15:00:0015:00
2020-12-13 15:00:0013/12/202 - 0 15:00:0015:00
2020-11-01 15:00:0001/11/204 - 1 15:00:0015:00
2020-10-25 15:00:0025/10/201 - 0 15:00:0015:00
2020-10-18 15:00:0018/10/201 - 0 15:00:0015:00
2020-10-11 15:00:0011/10/202 - 0 15:00:0015:00
2020-10-04 15:00:0004/10/202 - 0 15:00:0015:00
2020-09-27 15:00:0027/09/200 - 3 15:00:0015:00
2020-05-03 15:00:0003/05/20- 15:00:0015:00
2020-04-26 15:00:0026/04/20- 15:00:0015:00
2020-04-19 15:00:0019/04/20- 15:00:0015:00
2020-04-09 15:00:0009/04/20- 15:00:0015:00
2020-04-05 15:00:0005/04/20- 15:00:0015:00
2020-03-29 15:00:0029/03/20- 15:00:0015:00
2020-03-22 14:30:0022/03/20- 14:30:0014:30
2020-03-08 14:30:0008/03/20- 14:30:0014:30
2020-03-01 14:30:0001/03/203 - 2 14:30:0014:30
2020-02-23 14:30:0023/02/202 - 0 14:30:0014:30
2020-02-16 14:30:0016/02/204 - 0 14:30:0014:30
2020-02-09 14:30:0009/02/205 - 1 14:30:0014:30
2020-02-02 14:30:0002/02/202 - 0 14:30:0014:30
2020-01-26 14:30:0026/01/201 - 0 14:30:0014:30
2020-01-19 14:30:0019/01/201 - 0 14:30:0014:30
2020-01-12 14:30:0012/01/201 - 0 14:30:0014:30
2020-01-05 14:30:0005/01/200 - 0 14:30:0014:30
2019-12-22 14:30:0022/12/192 - 1 14:30:0014:30
2019-12-15 14:30:0015/12/191 - 1 14:30:0014:30
2019-12-08 14:30:0008/12/194 - 2 14:30:0014:30
2019-12-01 14:30:0001/12/192 - 0 14:30:0014:30
2019-11-24 14:30:0024/11/194 - 0 14:30:0014:30
2019-11-17 14:30:0017/11/190 - 1 14:30:0014:30
2019-11-10 14:30:0010/11/191 - 0 14:30:0014:30
2019-11-03 14:30:0003/11/193 - 1 14:30:0014:30
2019-10-27 14:30:0027/10/190 - 0 14:30:0014:30
2019-10-20 15:00:0020/10/192 - 1 15:00:0015:00
2019-10-13 15:00:0013/10/190 - 2 15:00:0015:00
2019-10-06 15:00:0006/10/190 - 1 15:00:0015:00
2019-09-29 15:00:0029/09/191 - 1 15:00:0015:00
2019-09-22 15:00:0022/09/191 - 2 15:00:0015:00
2019-09-15 15:00:0015/09/193 - 0 15:00:0015:00
2019-09-08 15:00:0008/09/193 - 2 15:00:0015:00
2019-09-01 15:00:0001/09/191 - 1 15:00:0015:00